.
WxDataArchive / Data Records for 2012-08-28
2012-08-27 August 2012 2012-08-29

Data Records for Tuesday, 28 August 2012

Time	Temp	Chill	HIndex	Humid	Dewpt	 Wind 	HiWind	WindDir	Rain 	Barom 
-----	----	-----	------	-----	-----	------	------	-------	-----	----- 
00:00	69.6	69.6	69.6	67	58.1	0	1	292	0.00	30.016 
00:05	69.4	69.4	69.4	67	58.0	0	0	---	0.00	30.016 
00:10	69.3	69.3	69.3	67	57.9	0	1	292	0.00	30.016 
00:15	69.1	69.1	69.1	67	57.7	0	1	292	0.00	30.013 
00:20	69.1	69.1	69.1	68	58.1	0	0	---	0.00	30.013 
00:25	68.8	68.8	68.8	68	57.8	0	0	---	0.00	30.013 
00:30	68.6	68.6	68.6	69	58.0	0	0	---	0.00	30.013 
00:35	68.4	68.4	68.4	69	57.8	0	0	---	0.00	30.013 
00:40	68.3	68.3	68.3	70	58.1	0	0	---	0.00	30.013 
00:45	68.1	68.1	68.1	70	57.9	0	1	292	0.00	30.013 
00:50	68.1	68.1	68.1	70	57.9	0	1	292	0.00	30.013 
00:55	67.9	67.9	67.9	70	57.7	0	1	292	0.00	30.013 
01:00	67.9	67.9	67.9	70	57.7	0	1	292	0.00	30.015 
01:05	67.9	67.9	67.9	71	58.1	0	1	292	0.00	30.015 
01:10	67.8	67.8	67.8	71	58.0	0	1	292	0.00	30.015 
01:15	67.6	67.6	67.6	71	57.9	0	1	292	0.00	30.013 
01:20	67.4	67.4	67.4	72	58.1	0	1	292	0.00	30.013 
01:25	67.3	67.3	67.3	72	58.0	0	0	---	0.00	30.013 
01:30	67.1	67.1	67.1	73	58.1	0	0	---	0.00	30.016 
01:35	66.9	66.9	66.9	73	58.0	0	1	292	0.00	30.016 
01:40	66.9	66.9	66.9	73	58.0	0	0	---	0.00	30.016 
01:45	66.8	66.8	66.8	73	57.9	0	0	---	0.00	30.018 
01:50	66.6	66.6	66.6	73	57.7	0	1	292	0.00	30.018 
01:55	66.6	66.6	66.6	74	58.0	0	1	292	0.00	30.018 
02:00	66.4	66.4	66.4	74	57.9	0	1	292	0.00	30.019 
02:05	66.3	66.3	66.3	74	57.8	0	0	---	0.00	30.019 
02:10	66.3	66.3	66.3	74	57.8	0	1	292	0.00	30.019 
02:15	66.1	66.1	66.1	75	57.9	0	1	292	0.00	30.018 
02:20	66.1	66.1	66.1	75	57.9	0	1	292	0.00	30.018 
02:25	66.0	66.0	66.0	75	57.8	0	0	---	0.00	30.018 
02:30	65.8	65.8	65.8	75	57.6	0	1	292	0.00	30.016 
02:35	65.8	65.8	65.8	75	57.6	0	1	292	0.00	30.016 
02:40	65.6	65.6	65.6	76	57.8	0	1	292	0.00	30.016 
02:45	65.6	65.6	65.6	76	57.8	0	1	292	0.00	30.017 
02:50	65.6	65.6	65.6	76	57.8	0	1	292	0.00	30.017 
02:55	65.5	65.5	65.5	76	57.7	0	1	292	0.00	30.017 
03:00	65.5	65.5	65.5	76	57.7	0	1	292	0.00	30.020 
03:05	65.3	65.3	65.3	77	57.9	0	1	292	0.00	30.020 
03:10	65.2	65.2	65.2	77	57.8	0	0	---	0.00	30.020 
03:15	65.2	65.2	65.2	77	57.8	0	1	292	0.00	30.020 
03:20	65.0	65.0	65.0	77	57.6	0	1	292	0.00	30.020 
03:25	64.8	64.8	64.8	78	57.8	0	0	---	0.00	30.020 
03:30	64.5	64.5	64.5	78	57.5	0	0	---	0.00	30.022 
03:35	64.3	64.3	64.3	79	57.6	0	0	---	0.00	30.022 
03:40	64.0	64.0	64.0	79	57.4	0	0	---	0.00	30.022 
03:45	63.9	63.9	63.9	80	57.6	0	0	---	0.00	30.023 
03:50	63.9	63.9	63.9	80	57.6	0	0	---	0.00	30.023 
03:55	63.7	63.7	63.7	81	57.8	0	0	---	0.00	30.023 
04:00	63.4	63.4	63.4	81	57.5	0	0	---	0.00	30.020 
04:05	63.2	63.2	63.2	81	57.3	0	1	292	0.00	30.020 
04:10	63.2	63.2	63.2	82	57.6	0	0	---	0.00	30.020 
04:15	63.1	63.1	63.1	82	57.5	0	0	---	0.00	30.027 
04:20	63.1	63.1	63.1	83	57.8	0	1	292	0.00	30.027 
04:25	63.1	63.1	63.1	83	57.8	0	0	---	0.00	30.027 
04:30	62.9	62.9	62.9	83	57.7	0	0	---	0.00	30.030 
04:35	62.9	62.9	62.9	83	57.7	0	0	---	0.00	30.030 
04:40	62.7	62.7	62.7	83	57.5	0	1	292	0.00	30.030 
04:45	62.7	62.7	62.7	83	57.5	0	1	292	0.00	30.030 
04:50	62.6	62.6	62.6	83	57.4	0	0	---	0.00	30.030 
04:55	62.4	62.4	62.4	83	57.2	0	0	---	0.00	30.030 
05:00	62.4	62.4	62.4	84	57.5	0	0	---	0.00	30.030 
05:05	62.3	62.3	62.3	84	57.4	0	0	---	0.00	30.030 
05:10	62.1	62.1	62.1	84	57.2	0	0	---	0.00	30.030 
05:15	62.0	62.0	62.0	84	57.1	0	0	---	0.00	30.030 
05:20	62.0	62.0	62.0	84	57.1	0	0	---	0.00	30.030 
05:25	61.8	61.8	61.8	84	56.9	0	0	---	0.00	30.030 
05:30	61.6	61.6	61.6	84	56.7	0	0	---	0.00	30.031 
05:35	61.5	61.5	61.5	85	56.9	0	0	---	0.00	30.031 
05:40	61.5	61.5	61.5	85	56.9	0	0	---	0.00	30.031 
05:45	61.3	61.3	61.3	85	56.7	0	0	---	0.00	30.035 
05:50	61.3	61.3	61.3	85	56.7	0	0	---	0.00	30.035 
05:55	61.3	61.3	61.3	85	56.7	0	0	---	0.00	30.035 
06:00	61.2	61.2	61.2	85	56.6	0	0	---	0.00	30.041 
06:05	61.2	61.2	61.2	85	56.6	0	0	---	0.00	30.041 
06:10	61.2	61.2	61.2	85	56.6	0	0	---	0.00	30.041 
06:15	61.0	61.0	61.0	85	56.5	0	0	---	0.00	30.043 
06:20	60.9	60.9	60.9	85	56.4	0	0	---	0.00	30.043 
06:25	60.7	60.7	60.7	86	56.5	0	0	---	0.00	30.043 
06:30	60.5	60.5	60.5	86	56.3	0	0	---	0.00	30.046 
06:35	60.4	60.4	60.4	86	56.2	0	0	---	0.00	30.046 
06:40	60.4	60.4	60.4	86	56.2	0	0	---	0.00	30.046 
06:45	60.2	60.2	60.2	86	56.0	0	0	---	0.00	30.047 
06:50	60.1	60.1	60.1	86	55.9	0	0	---	0.00	30.047 
06:55	59.9	59.9	59.9	87	56.0	0	0	---	0.00	30.047 
07:00	59.6	59.6	59.6	87	55.7	0	0	---	0.00	30.049 
07:05	59.5	59.5	59.5	87	55.6	0	0	---	0.00	30.049 
07:10	59.3	59.3	59.3	87	55.4	0	0	---	0.00	30.049 
07:15	59.3	59.3	59.3	88	55.7	0	0	---	0.00	30.063 
07:20	59.2	59.2	59.2	88	55.6	0	0	---	0.00	30.063 
07:25	59.2	59.2	59.2	88	55.6	0	0	---	0.00	30.063 
07:30	59.0	59.0	59.0	88	55.4	0	0	---	0.00	30.070 
07:35	59.2	59.2	59.2	89	56.0	0	0	---	0.00	30.070 
07:40	59.5	59.5	59.5	89	56.3	0	0	---	0.00	30.070 
07:45	59.8	59.8	59.8	89	56.5	0	0	---	0.00	30.079 
07:50	60.1	60.1	60.1	88	56.5	0	1	292	0.00	30.079 
07:55	60.5	60.5	60.5	88	56.9	0	1	292	0.00	30.079 
08:00	61.2	61.2	61.2	87	57.3	0	1	292	0.00	30.081 
08:05	61.6	61.6	61.6	85	57.0	0	1	292	0.00	30.081 
08:10	62.1	62.1	62.1	84	57.2	0	1	292	0.00	30.081 
08:15	62.6	62.6	62.6	84	57.7	0	0	---	0.00	30.086 
08:20	63.4	63.4	63.4	83	58.1	0	0	---	0.00	30.086 
08:25	64.0	64.0	64.0	81	58.0	0	1	292	0.00	30.086 
08:30	64.7	64.7	64.7	80	58.4	0	1	292	0.00	30.084 
08:35	65.3	65.3	65.3	79	58.6	0	1	292	0.00	30.084 
08:40	65.6	65.6	65.6	78	58.5	0	2	202	0.00	30.084 
08:45	65.8	65.8	65.8	77	58.4	0	1	202	0.00	30.083 
08:50	66.1	66.1	66.1	77	58.7	0	1	202	0.00	30.083 
08:55	66.4	66.4	66.4	76	58.6	0	1	202	0.00	30.083 
09:00	66.9	66.9	66.9	77	59.4	0	2	202	0.00	30.087 
09:05	67.3	67.3	67.3	75	59.1	0	1	202	0.00	30.087 
09:10	67.4	67.4	67.4	74	58.8	0	1	202	0.00	30.087 
09:15	67.6	67.6	67.6	73	58.6	0	2	180	0.00	30.093 
09:20	67.8	67.8	67.8	73	58.8	0	2	180	0.00	30.093 
09:25	68.1	68.1	68.1	72	58.7	0	1	180	0.00	30.093 
09:30	68.4	68.4	68.4	72	59.0	0	3	180	0.00	30.096 
09:35	68.8	68.8	68.8	71	59.0	0	2	180	0.00	30.096 
09:40	69.1	69.1	69.1	70	58.9	1	3	112	0.00	30.096 
09:45	69.3	69.3	69.3	69	58.7	1	4	112	0.00	30.091 
09:50	69.6	69.6	69.6	69	59.0	0	2	112	0.00	30.091 
09:55	70.1	70.1	70.1	67	58.6	2	5	112	0.00	30.091 
10:00	70.6	70.6	70.6	68	59.5	1	4	112	0.00	30.091 
10:05	71.1	71.1	71.1	68	60.0	0	2	135	0.00	30.091 
10:10	71.5	71.5	71.5	66	59.5	1	3	135	0.00	30.091 
10:15	72.1	72.1	72.1	64	59.2	1	4	90	0.00	30.092 
10:20	72.8	72.8	72.8	64	59.9	0	2	135	0.00	30.092 
10:25	73.3	73.3	73.3	62	59.5	1	5	90	0.00	30.092 
10:30	73.7	73.7	73.7	59	58.5	2	7	90	0.00	30.084 
10:35	74.2	74.2	74.2	59	58.9	1	4	90	0.00	30.084 
10:40	74.6	74.6	74.6	56	57.8	3	6	112	0.00	30.084 
10:45	75.1	75.1	77.5	59	59.8	1	3	112	0.00	30.085 
10:50	75.6	75.6	77.8	55	58.3	1	4	90	0.00	30.085 
10:55	76.0	76.0	78.1	56	59.2	2	5	68	0.00	30.085 
11:00	76.5	76.5	78.4	54	58.6	1	5	68	0.00	30.082 
11:05	76.8	76.8	78.5	51	57.3	2	5	135	0.00	30.082 
11:10	76.8	76.8	78.6	54	58.9	2	5	90	0.00	30.082 
11:15	77.0	77.0	78.7	53	58.5	2	5	90	0.00	30.086 
11:20	77.0	77.0	78.7	54	59.1	2	4	90	0.00	30.086 
11:25	77.4	77.4	79.0	54	59.4	1	3	90	0.00	30.086 
11:30	77.7	77.7	79.1	52	58.6	2	5	90	0.00	30.090 
11:35	77.9	77.9	79.3	52	58.8	1	3	90	0.00	30.090 
11:40	78.3	78.3	79.6	53	59.7	1	2	112	0.00	30.090 
11:45	78.6	78.6	79.7	50	58.4	1	5	112	0.00	30.091 
11:50	79.2	79.2	80.1	50	58.9	0	1	112	0.00	30.091 
11:55	79.6	79.6	80.5	51	59.9	0	4	112	0.00	30.091 
12:00	79.8	79.8	80.4	47	57.8	2	5	112	0.00	30.089 
12:05	79.4	79.4	80.3	50	59.1	2	5	112	0.00	30.089 
12:10	79.4	79.4	80.1	48	58.0	1	4	112	0.00	30.089 
12:15	79.6	79.6	80.4	49	58.7	1	4	112	0.00	30.091 
12:20	79.9	79.9	80.4	46	57.2	1	3	112	0.00	30.091 
12:25	79.9	79.9	80.6	49	59.0	1	3	112	0.00	30.091 
12:30	79.8	79.8	80.3	46	57.2	1	4	292	0.00	30.092 
12:35	79.9	79.9	80.3	45	56.6	1	3	112	0.00	30.092 
12:40	80.5	80.5	81.4	51	60.7	0	4	112	0.00	30.092 
12:45	80.7	80.7	81.2	48	59.2	2	5	112	0.00	30.092 
12:50	80.3	80.3	81.0	49	59.4	1	4	112	0.00	30.092 
12:55	80.1	80.1	80.6	47	58.0	1	2	315	0.00	30.092 
13:00	80.3	80.3	80.8	47	58.2	1	4	315	0.00	30.086 
13:05	80.3	80.3	80.9	48	58.8	1	4	315	0.00	30.086 
13:10	80.3	80.3	80.9	48	58.8	1	3	0	0.00	30.086 
13:15	80.3	80.3	80.7	46	57.6	1	4	315	0.00	30.084 
13:20	80.5	80.5	80.9	47	58.4	1	2	315	0.00	30.084 
13:25	80.5	80.5	80.9	47	58.4	1	4	315	0.00	30.084 
13:30	80.9	80.9	81.2	46	58.2	0	2	135	0.00	30.077 
13:35	81.1	81.1	82.0	51	61.2	1	4	112	0.00	30.077 
13:40	81.2	81.2	81.2	44	57.2	1	4	90	0.00	30.077 
13:45	81.2	81.2	81.2	44	57.2	1	4	90	0.00	30.074 
13:50	81.1	81.1	81.5	47	58.9	1	4	90	0.00	30.074 
13:55	81.2	81.2	81.3	45	57.8	0	3	112	0.00	30.074 
14:00	81.4	81.4	81.5	45	58.0	0	2	0	0.00	30.066 
14:05	81.1	81.1	81.5	47	58.9	1	4	90	0.00	30.066 
14:10	81.1	81.1	81.7	49	60.1	1	5	112	0.00	30.066 
14:15	81.2	81.2	81.3	45	57.8	1	3	135	0.00	30.062 
14:20	81.2	81.2	81.6	47	59.0	1	4	90	0.00	30.062 
14:25	81.2	81.2	81.5	46	58.4	0	2	90	0.00	30.062 
14:30	81.4	81.4	81.6	46	58.6	1	3	292	0.00	30.058 
14:35	81.6	81.6	81.7	45	58.2	0	2	158	0.00	30.058 
14:40	81.4	81.4	81.3	43	56.7	0	2	0	0.00	30.058 
14:45	81.4	81.4	81.4	44	57.4	0	2	0	0.00	30.058 
14:50	81.4	81.4	81.4	44	57.4	2	5	270	0.00	30.058 
14:55	81.4	81.4	81.3	43	56.7	2	5	270	0.00	30.058 
15:00	81.4	81.4	81.3	43	56.7	1	3	292	0.00	30.054 
15:05	81.4	81.4	81.6	46	58.6	1	3	292	0.00	30.054 
15:10	81.2	81.2	81.7	48	59.6	1	4	292	0.00	30.054 
15:15	81.6	81.6	81.6	44	57.5	0	3	0	0.00	30.047 
15:20	80.9	80.9	81.0	44	56.9	1	3	315	0.00	30.047 
15:25	80.1	80.1	80.4	45	56.8	1	3	315	0.00	30.047 
15:30	80.3	80.3	80.7	46	57.6	0	1	112	0.00	30.047 
15:35	80.9	80.9	81.2	46	58.2	0	3	112	0.00	30.047 
15:40	81.2	81.2	81.2	44	57.2	1	3	315	0.00	30.047 
15:45	81.6	81.6	81.7	45	58.2	0	3	315	0.00	30.046 
15:50	81.1	81.1	81.3	45	57.7	1	5	315	0.00	30.046 
15:55	80.1	80.1	80.6	47	58.0	0	3	338	0.00	30.046 
16:00	80.3	80.3	80.5	44	56.4	1	4	270	0.00	30.044 
16:05	80.1	80.1	80.5	46	57.4	1	4	270	0.00	30.044 
16:10	80.1	80.1	80.6	47	58.0	1	5	292	0.00	30.044 
16:15	79.9	79.9	80.5	48	58.4	0	3	270	0.00	30.040 
16:20	79.6	79.6	80.4	49	58.7	0	1	270	0.00	30.040 
16:25	79.2	79.2	79.8	46	56.6	1	4	270	0.00	30.040 
16:30	79.0	79.0	79.8	48	57.6	1	4	338	0.00	30.035 
16:35	79.8	79.8	80.3	46	57.2	1	3	315	0.00	30.035 
16:40	79.6	79.6	80.1	46	57.0	1	4	292	0.00	30.035 
16:45	79.0	79.0	79.8	48	57.6	0	1	270	0.00	30.034 
16:50	78.8	78.8	79.7	48	57.4	1	3	270	0.00	30.034 
16:55	79.6	79.6	80.5	51	59.9	0	2	270	0.00	30.034 
17:00	80.3	80.3	80.9	48	58.8	0	2	270	0.00	30.031 
17:05	79.9	79.9	80.5	48	58.4	0	1	270	0.00	30.031 
17:10	79.4	79.4	80.2	49	58.5	0	3	180	0.00	30.031 
17:15	78.8	78.8	79.8	50	58.6	0	2	112	0.00	30.033 
17:20	78.5	78.5	79.6	51	58.8	0	1	112	0.00	30.033 
17:25	78.6	78.6	79.7	51	58.9	0	1	112	0.00	30.033 
17:30	79.0	79.0	79.8	48	57.6	1	3	22	0.00	30.025 
17:35	78.8	78.8	79.8	50	58.6	0	2	22	0.00	30.025 
17:40	79.0	79.0	79.9	49	58.2	0	2	315	0.00	30.025 
17:45	79.4	79.4	80.2	49	58.5	1	3	315	0.00	30.020 
17:50	79.6	79.6	80.4	49	58.7	0	1	315	0.00	30.020 
17:55	79.6	79.6	80.3	48	58.2	1	5	315	0.00	30.020 
18:00	79.6	79.6	80.2	47	57.6	1	3	22	0.00	30.020 
18:05	79.6	79.6	80.2	47	57.6	0	2	338	0.00	30.020 
18:10	79.4	79.4	80.1	47	57.4	0	2	338	0.00	30.020 
18:15	79.2	79.2	79.9	47	57.2	1	4	315	0.00	30.022 
18:20	79.4	79.4	80.2	49	58.5	0	1	315	0.00	30.022 
18:25	79.4	79.4	80.1	48	58.0	1	3	315	0.00	30.022 
18:30	79.4	79.4	80.2	49	58.5	1	3	292	0.00	30.021 
18:35	79.4	79.4	80.3	50	59.1	0	1	292	0.00	30.021 
18:40	79.4	79.4	80.1	48	58.0	0	2	292	0.00	30.021 
18:45	79.4	79.4	80.3	50	59.1	0	2	292	0.00	30.019 
18:50	79.0	79.0	79.9	49	58.2	0	2	292	0.00	30.019 
18:55	78.6	78.6	79.7	50	58.4	0	3	315	0.00	30.019 
19:00	78.3	78.3	79.4	50	58.1	0	3	315	0.00	30.020 
19:05	78.1	78.1	79.3	50	57.9	0	1	315	0.00	30.020 
19:10	77.9	77.9	79.2	50	57.7	0	2	315	0.00	30.020 
19:15	77.9	77.9	79.2	51	58.3	0	2	315	0.00	30.018 
19:20	77.7	77.7	79.1	52	58.6	0	1	315	0.00	30.018 
19:25	77.7	77.7	79.2	53	59.2	0	1	315	0.00	30.018 
19:30	77.6	77.6	79.1	53	59.1	0	1	315	0.00	30.019 
19:35	77.4	77.4	78.9	52	58.4	0	1	315	0.00	30.019 
19:40	77.2	77.2	78.8	53	58.7	0	0	---	0.00	30.019 
19:45	77.0	77.0	78.7	53	58.5	0	1	315	0.00	30.016 
19:50	76.8	76.8	78.5	53	58.4	0	1	315	0.00	30.016 
19:55	76.7	76.7	78.5	54	58.8	0	0	---	0.00	30.016 
20:00	76.5	76.5	78.4	54	58.6	0	0	---	0.00	30.018 
20:05	76.3	76.3	78.3	54	58.4	0	0	---	0.00	30.018 
20:10	76.0	76.0	78.1	55	58.6	0	0	---	0.00	30.018 
20:15	75.6	75.6	77.8	55	58.3	0	0	---	0.00	30.014 
20:20	75.3	75.3	77.7	56	58.5	0	0	---	0.00	30.014 
20:25	74.9	74.9	74.9	56	58.1	0	0	---	0.00	30.014 
20:30	74.6	74.6	74.6	57	58.3	0	0	---	0.00	30.013 
20:35	74.0	74.0	74.0	58	58.3	0	0	---	0.00	30.013 
20:40	73.7	73.7	73.7	59	58.5	0	0	---	0.00	30.013 
20:45	73.2	73.2	73.2	60	58.5	0	0	---	0.00	30.012 
20:50	72.7	72.7	72.7	62	58.9	0	0	---	0.00	30.012 
20:55	72.1	72.1	72.1	63	58.8	0	0	---	0.00	30.012 
21:00	71.8	71.8	71.8	64	59.0	0	0	---	0.00	30.019 
21:05	71.5	71.5	71.5	65	59.1	0	0	---	0.00	30.019 
21:10	71.1	71.1	71.1	66	59.2	0	0	---	0.00	30.019 
21:15	70.8	70.8	70.8	67	59.3	0	0	---	0.00	30.017 
21:20	70.4	70.4	70.4	68	59.3	0	0	---	0.00	30.017 
21:25	70.1	70.1	70.1	70	59.8	0	0	---	0.00	30.017 
21:30	69.8	69.8	69.8	71	60.0	0	0	---	0.00	30.024 
21:35	69.4	69.4	69.4	72	60.0	0	0	---	0.00	30.024 
21:40	69.1	69.1	69.1	73	60.1	0	0	---	0.00	30.024 
21:45	68.9	68.9	68.9	73	59.9	0	0	---	0.00	30.029 
21:50	68.8	68.8	68.8	73	59.8	0	0	---	0.00	30.029 
21:55	68.4	68.4	68.4	74	59.8	0	0	---	0.00	30.029 
22:00	68.3	68.3	68.3	75	60.1	0	0	---	0.00	30.035 
22:05	68.1	68.1	68.1	76	60.2	0	0	---	0.00	30.035 
22:10	68.1	68.1	68.1	77	60.6	0	0	---	0.00	30.035 
22:15	67.8	67.8	67.8	77	60.3	0	0	---	0.00	30.031 
22:20	67.6	67.6	67.6	77	60.1	0	0	---	0.00	30.031 
22:25	67.4	67.4	67.4	78	60.3	0	0	---	0.00	30.031 
22:30	67.3	67.3	67.3	78	60.2	0	0	---	0.00	30.030 
22:35	67.1	67.1	67.1	79	60.4	0	0	---	0.00	30.030 
22:40	66.9	66.9	66.9	80	60.5	0	0	---	0.00	30.030 
22:45	66.8	66.8	66.8	81	60.8	0	0	---	0.00	30.031 
22:50	66.6	66.6	66.6	81	60.6	0	0	---	0.00	30.031 
22:55	66.4	66.4	66.4	81	60.4	0	0	---	0.00	30.031 
23:00	66.1	66.1	66.1	81	60.1	0	0	---	0.00	30.032 
23:05	66.0	66.0	66.0	81	60.0	0	0	---	0.00	30.032 
23:10	65.8	65.8	65.8	82	60.1	0	0	---	0.00	30.032 
23:15	65.6	65.6	65.6	82	59.9	0	0	---	0.00	30.029 
23:20	65.5	65.5	65.5	82	59.9	0	0	---	0.00	30.029 
23:25	65.3	65.3	65.3	83	60.0	0	0	---	0.00	30.029 
23:30	65.2	65.2	65.2	83	59.9	0	0	---	0.00	30.030 
23:35	65.0	65.0	65.0	84	60.0	0	0	---	0.00	30.030 
23:40	64.8	64.8	64.8	84	59.8	0	0	---	0.00	30.030 
23:45	64.7	64.7	64.7	84	59.7	0	0	---	0.00	30.031 
23:50	64.5	64.5	64.5	85	59.9	0	0	---	0.00	30.031 
23:55	64.3	64.3	64.3	85	59.7	0	0	---	0.00	30.031 

CoCoRaHS
IN-AL-39
A2 Web Hosting
Creative Commons License
GoDaddy
search engine by freefind advanced

loaded 2018-11-21 00:35:34 • last modified 2010-11-18 10:43:29
Privacy PolicyDisclaimer
• wx.awcolley.com is powered by PmWiki v.2002016 •
• all content (unless otherwise noted) © 2018 A W Colley